createdAt,value
2023-04-30T00:02:01.374Z,7.40
2023-04-30T00:04:27.945Z,6.90
2023-04-30T00:06:54.387Z,7.07
2023-04-30T00:09:20.789Z,7.93
2023-04-30T00:11:47.362Z,7.60
2023-04-30T00:14:15.707Z,8.90
2023-04-30T00:16:42.090Z,7.28
2023-04-30T00:19:09.273Z,7.43
2023-04-30T00:21:37.262Z,7.28
2023-04-30T00:24:04.162Z,7.10
2023-04-30T00:26:30.579Z,7.60
2023-04-30T00:28:57.038Z,7.25
2023-04-30T00:31:23.478Z,7.13
2023-04-30T00:33:50.756Z,7.35
2023-04-30T00:36:17.058Z,7.50
2023-04-30T00:38:43.493Z,7.20
2023-04-30T00:41:11.581Z,7.50
2023-04-30T00:43:39.587Z,7.82
2023-04-30T00:46:06.769Z,8.07
2023-04-30T00:48:36.099Z,7.75
2023-04-30T00:51:04.136Z,8.30
2023-04-30T00:53:31.792Z,7.80
2023-04-30T00:55:59.178Z,7.37
2023-04-30T00:58:26.668Z,8.10
2023-04-30T01:00:53.361Z,7.20
2023-04-30T01:03:20.492Z,8.00
2023-04-30T01:05:46.951Z,7.55
2023-04-30T01:08:13.627Z,7.95
2023-04-30T01:10:56.338Z,7.47
2023-04-30T01:13:27.284Z,7.63
2023-04-30T01:16:03.947Z,6.80
2023-04-30T01:19:09.522Z,7.40
2023-04-30T01:21:41.460Z,7.07
2023-04-30T01:24:14.113Z,8.02
2023-04-30T01:26:59.069Z,7.70
2023-04-30T01:29:27.313Z,8.35
2023-04-30T01:31:53.704Z,8.07
2023-04-30T01:34:20.174Z,7.53
2023-04-30T01:37:05.182Z,7.72
2023-04-30T01:39:56.650Z,8.40
2023-04-30T01:42:33.486Z,8.18
2023-04-30T01:45:28.718Z,8.30
2023-04-30T01:48:27.974Z,8.73
2023-04-30T01:51:22.155Z,8.27
2023-04-30T01:53:49.226Z,8.10
2023-04-30T01:56:25.882Z,7.72
2023-04-30T01:58:53.586Z,8.02
2023-04-30T02:01:27.710Z,7.82
2023-04-30T02:03:54.622Z,7.45
2023-04-30T02:06:21.416Z,8.05
2023-04-30T02:08:49.256Z,8.65
2023-04-30T02:11:16.238Z,8.05
2023-04-30T02:13:42.846Z,8.27
2023-04-30T02:16:09.460Z,8.73
2023-04-30T02:18:36.434Z,8.43
2023-04-30T02:21:02.778Z,8.30
2023-04-30T02:23:29.462Z,8.57
2023-04-30T02:25:55.806Z,8.48
2023-04-30T02:28:22.261Z,8.02
2023-04-30T02:30:48.670Z,7.63
2023-04-30T02:33:15.061Z,8.68
2023-04-30T02:35:41.684Z,7.78
2023-04-30T02:38:08.053Z,7.72
2023-04-30T02:40:34.400Z,7.78
2023-04-30T02:43:01.467Z,8.27
2023-04-30T02:45:27.851Z,8.73
2023-04-30T02:47:54.545Z,8.52
2023-04-30T02:50:20.941Z,8.55
2023-04-30T02:52:47.335Z,8.77
2023-04-30T02:55:13.784Z,8.93
2023-04-30T02:57:40.513Z,8.10
2023-04-30T03:00:07.718Z,7.85
2023-04-30T03:02:34.257Z,8.00
2023-04-30T03:05:00.692Z,8.98
2023-04-30T03:07:27.077Z,8.85
2023-04-30T03:09:53.755Z,8.88
2023-04-30T03:12:20.387Z,9.25
2023-04-30T03:14:46.806Z,8.40
2023-04-30T03:17:13.439Z,8.15
2023-04-30T03:19:39.839Z,8.68
2023-04-30T03:22:06.208Z,8.35
2023-04-30T03:24:32.585Z,8.65
2023-04-30T03:26:59.324Z,9.35
2023-04-30T03:29:25.645Z,8.65
2023-04-30T03:31:52.628Z,8.05
2023-04-30T03:34:19.184Z,8.23
2023-04-30T03:36:45.496Z,8.10
2023-04-30T03:39:12.212Z,9.52
2023-04-30T03:41:38.595Z,8.18
2023-04-30T03:44:05.508Z,7.93
2023-04-30T03:46:31.942Z,7.32
2023-04-30T03:48:58.349Z,8.20
2023-04-30T03:51:24.782Z,7.63
2023-04-30T03:53:51.432Z,8.35
2023-04-30T03:56:17.783Z,7.82
2023-04-30T03:58:44.385Z,8.27
2023-04-30T04:01:10.993Z,8.07
2023-04-30T04:03:37.571Z,9.05
2023-04-30T04:06:05.485Z,9.23
2023-04-30T04:08:32.814Z,8.32
2023-04-30T04:10:59.857Z,7.82
2023-04-30T04:13:26.212Z,8.23
2023-04-30T04:15:52.861Z,8.70
2023-04-30T04:18:19.350Z,8.85
2023-04-30T04:20:45.938Z,9.45
2023-04-30T04:23:12.412Z,9.20
2023-04-30T04:25:39.386Z,10.60
2023-04-30T04:28:05.939Z,9.43
2023-04-30T04:30:32.334Z,10.20
2023-04-30T04:32:58.968Z,9.45
2023-04-30T04:35:25.750Z,10.35
2023-04-30T04:37:52.338Z,10.20
2023-04-30T04:40:19.018Z,9.68
2023-04-30T04:42:45.400Z,10.50
2023-04-30T04:45:12.144Z,10.63
2023-04-30T04:47:38.921Z,9.75
2023-04-30T04:50:06.790Z,10.00
2023-04-30T04:52:33.345Z,10.63
2023-04-30T04:54:59.705Z,10.95
2023-04-30T04:57:26.403Z,10.38
2023-04-30T04:59:53.294Z,10.52
2023-04-30T05:02:20.141Z,11.02
2023-04-30T05:04:47.283Z,10.13
2023-04-30T05:07:13.679Z,11.07
2023-04-30T05:09:40.060Z,10.52
2023-04-30T05:12:06.802Z,10.45
2023-04-30T05:14:33.198Z,10.10
2023-04-30T05:16:59.589Z,10.98
2023-04-30T05:19:26.115Z,10.45
2023-04-30T05:21:52.692Z,10.77
2023-04-30T05:24:19.455Z,9.77
2023-04-30T05:26:46.087Z,10.10
2023-04-30T05:29:12.531Z,10.15
2023-04-30T05:31:40.156Z,10.13
2023-04-30T05:34:06.590Z,10.60
2023-04-30T05:36:32.941Z,10.30
2023-04-30T05:38:59.393Z,10.38
2023-04-30T05:41:25.863Z,10.90
2023-04-30T05:43:52.239Z,10.57
2023-04-30T05:46:18.806Z,10.15
2023-04-30T05:48:45.515Z,10.35
2023-04-30T05:51:11.823Z,9.95
2023-04-30T05:53:38.425Z,9.73
2023-04-30T05:56:04.901Z,9.63
2023-04-30T05:58:31.313Z,10.18
2023-04-30T06:00:59.177Z,9.23
2023-04-30T06:03:25.730Z,9.88
2023-04-30T06:05:52.443Z,9.07
2023-04-30T06:08:19.093Z,9.55
2023-04-30T06:10:45.633Z,9.20
2023-04-30T06:13:12.285Z,9.25
2023-04-30T06:15:38.889Z,9.75
2023-04-30T06:18:05.573Z,9.40
2023-04-30T06:20:32.306Z,9.57
2023-04-30T06:22:59.939Z,9.80
2023-04-30T06:25:26.452Z,10.50
2023-04-30T06:27:54.204Z,10.60
2023-04-30T06:30:21.188Z,10.35
2023-04-30T06:32:47.606Z,11.18
2023-04-30T06:35:14.369Z,11.52
2023-04-30T06:37:40.925Z,11.48
2023-04-30T06:40:08.040Z,10.77
2023-04-30T06:42:35.249Z,11.55
2023-04-30T06:45:02.658Z,12.40
2023-04-30T06:47:34.450Z,12.05
2023-04-30T06:50:01.539Z,11.88
2023-04-30T06:52:28.502Z,11.73
2023-04-30T06:54:54.883Z,11.70
2023-04-30T06:57:21.471Z,12.05
2023-04-30T06:59:48.218Z,12.73
2023-04-30T07:02:14.974Z,11.68
2023-04-30T07:04:41.346Z,13.23
2023-04-30T07:07:07.919Z,11.43
2023-04-30T07:09:34.212Z,11.85
2023-04-30T07:12:01.080Z,12.68
2023-04-30T07:14:27.664Z,13.32
2023-04-30T07:16:54.243Z,12.18
2023-04-30T07:19:20.870Z,11.65
2023-04-30T07:21:47.487Z,11.32
2023-04-30T07:24:13.841Z,11.75
2023-04-30T07:26:40.284Z,11.05
2023-04-30T07:29:06.665Z,11.30
2023-04-30T07:31:34.114Z,11.30
2023-04-30T07:34:00.614Z,11.43
2023-04-30T07:36:28.652Z,11.48
2023-04-30T07:38:55.054Z,10.93
2023-04-30T07:41:21.811Z,10.90
2023-04-30T07:43:48.202Z,11.38
2023-04-30T07:46:14.684Z,11.52
2023-04-30T07:48:41.186Z,10.38
2023-04-30T07:51:07.560Z,11.40
2023-04-30T07:53:34.088Z,9.80
2023-04-30T07:56:00.963Z,11.50
2023-04-30T07:58:27.334Z,10.48
2023-04-30T08:00:53.893Z,10.82
2023-04-30T08:03:20.475Z,10.75
2023-04-30T08:05:47.351Z,10.95
2023-04-30T08:08:13.712Z,9.15
2023-04-30T08:10:42.054Z,9.95
2023-04-30T08:13:08.429Z,9.30
2023-04-30T08:15:34.817Z,8.65
2023-04-30T08:18:02.588Z,8.98
2023-04-30T08:20:29.383Z,8.68
2023-04-30T08:22:55.974Z,8.73
2023-04-30T08:25:22.531Z,8.60
2023-04-30T08:27:48.915Z,8.55
2023-04-30T08:30:15.358Z,7.90
2023-04-30T08:32:41.954Z,8.27
2023-04-30T08:35:09.216Z,8.13
2023-04-30T08:37:35.738Z,8.25
2023-04-30T08:40:02.401Z,7.22
2023-04-30T08:42:35.175Z,7.10
2023-04-30T08:45:03.264Z,7.05
2023-04-30T08:47:30.498Z,6.75
2023-04-30T08:49:56.997Z,6.93
2023-04-30T08:52:25.163Z,7.18
2023-04-30T08:54:54.124Z,7.95
2023-04-30T08:57:20.779Z,6.68
2023-04-30T08:59:47.729Z,7.20
2023-04-30T09:02:14.457Z,7.38
2023-04-30T09:04:40.907Z,6.15
2023-04-30T09:07:09.462Z,7.07
2023-04-30T09:09:39.287Z,7.40
2023-04-30T09:12:18.870Z,6.43
2023-04-30T09:15:02.502Z,6.95
2023-04-30T09:17:30.249Z,6.50
2023-04-30T09:20:10.910Z,6.00
2023-04-30T09:22:39.475Z,5.75
2023-04-30T09:27:33.682Z,6.80
2023-04-30T09:30:01.104Z,5.97
2023-04-30T09:32:27.582Z,5.85
2023-04-30T09:34:55.190Z,5.78
2023-04-30T09:37:21.608Z,6.28
2023-04-30T09:39:55.248Z,6.43
2023-04-30T09:42:22.338Z,4.85
2023-04-30T09:44:48.984Z,5.38
2023-04-30T09:47:20.870Z,5.50
2023-04-30T09:49:48.366Z,5.30
2023-04-30T09:52:16.117Z,5.35
2023-04-30T09:54:44.108Z,5.55
2023-04-30T09:57:13.463Z,5.10
2023-04-30T09:59:44.086Z,4.68
2023-04-30T10:02:13.471Z,4.80
2023-04-30T10:04:44.544Z,5.78
2023-04-30T10:07:11.617Z,5.90
2023-04-30T10:09:43.227Z,5.18
2023-04-30T10:12:20.598Z,4.53
2023-04-30T10:14:55.545Z,4.93
2023-04-30T10:17:26.898Z,5.15
2023-04-30T10:20:01.199Z,5.60
2023-04-30T10:22:29.036Z,5.45
2023-04-30T10:24:55.832Z,5.18
2023-04-30T10:27:22.349Z,4.93
2023-04-30T10:29:52.194Z,5.40
2023-04-30T10:32:20.341Z,5.55
2023-04-30T10:35:35.370Z,6.40
2023-04-30T10:38:12.899Z,5.70
2023-04-30T10:40:39.564Z,6.07
2023-04-30T10:43:06.664Z,5.22
2023-04-30T10:45:38.140Z,5.88
2023-04-30T10:48:07.493Z,5.50
2023-04-30T10:50:40.766Z,5.97
2023-04-30T10:53:12.347Z,4.70
2023-04-30T10:55:59.733Z,5.20
2023-04-30T10:58:34.764Z,4.87
2023-04-30T11:01:15.939Z,5.35
2023-04-30T11:03:43.875Z,4.78
2023-04-30T11:06:15.068Z,5.28
2023-04-30T11:08:46.181Z,5.38
2023-04-30T11:11:20.954Z,5.90
2023-04-30T11:13:57.797Z,5.43
2023-04-30T11:16:30.781Z,5.43
2023-04-30T11:19:13.205Z,5.30
2023-04-30T11:22:04.413Z,5.43
2023-04-30T11:24:58.864Z,5.10
2023-04-30T11:27:30.460Z,5.22
2023-04-30T11:29:59.233Z,5.55
2023-04-30T11:32:33.852Z,5.50
2023-04-30T11:35:05.152Z,5.32
2023-04-30T11:37:36.484Z,5.20
2023-04-30T11:40:08.754Z,5.57
2023-04-30T11:42:35.255Z,4.97
2023-04-30T11:45:10.165Z,4.68
2023-04-30T11:47:50.422Z,5.07
2023-04-30T11:50:27.553Z,4.40
2023-04-30T11:52:54.913Z,4.72
2023-04-30T11:55:24.412Z,5.15
2023-04-30T11:57:54.550Z,5.28
2023-04-30T12:00:31.670Z,4.78
2023-04-30T12:03:01.285Z,4.63
2023-04-30T12:05:28.409Z,4.50
2023-04-30T12:08:01.142Z,4.63
2023-04-30T12:10:27.536Z,4.93
2023-04-30T12:12:54.811Z,4.82
2023-04-30T12:15:26.721Z,4.30
2023-04-30T12:17:57.814Z,4.50
2023-04-30T12:20:26.384Z,3.92
2023-04-30T12:25:21.272Z,4.50
2023-04-30T12:27:49.482Z,3.90
2023-04-30T12:30:20.141Z,3.78
2023-04-30T12:32:50.430Z,3.90
2023-04-30T12:35:19.020Z,3.78
2023-04-30T12:40:14.484Z,3.30
2023-04-30T12:42:44.101Z,3.85
2023-04-30T12:45:11.355Z,2.97
2023-04-30T12:47:42.368Z,3.70
2023-04-30T12:50:15.055Z,3.28
2023-04-30T12:52:41.447Z,4.10
2023-04-30T12:55:21.194Z,3.80
2023-04-30T12:58:09.237Z,3.35
2023-04-30T13:00:49.832Z,3.03
2023-04-30T13:03:19.173Z,2.88
2023-04-30T13:05:50.873Z,3.47
2023-04-30T13:08:18.806Z,2.53
2023-04-30T13:10:46.858Z,3.45
2023-04-30T13:13:15.536Z,3.15
2023-04-30T13:15:45.301Z,3.53
2023-04-30T13:18:12.219Z,3.13
2023-04-30T13:20:39.192Z,2.97
2023-04-30T13:23:06.622Z,3.00
2023-04-30T13:25:34.087Z,2.80
2023-04-30T13:28:00.584Z,2.97
2023-04-30T13:30:27.198Z,2.67
2023-04-30T13:32:54.320Z,2.95
2023-04-30T13:35:20.825Z,3.00
2023-04-30T13:37:52.356Z,2.67
2023-04-30T13:40:19.620Z,3.40
2023-04-30T13:42:47.624Z,3.05
2023-04-30T13:45:14.174Z,2.90
2023-04-30T13:47:41.017Z,3.10
2023-04-30T13:50:08.838Z,3.28
2023-04-30T13:52:35.248Z,2.80
2023-04-30T13:55:02.259Z,2.40
2023-04-30T13:57:29.972Z,2.50
2023-04-30T13:59:57.091Z,3.10
2023-04-30T14:02:23.999Z,2.40
2023-04-30T14:05:04.645Z,1.90
2023-04-30T14:07:32.864Z,2.05
2023-04-30T14:09:59.771Z,2.00
2023-04-30T14:12:26.265Z,2.00
2023-04-30T14:14:52.913Z,2.20
2023-04-30T14:17:19.533Z,2.47
2023-04-30T14:19:46.104Z,1.80
2023-04-30T14:22:12.542Z,1.60
2023-04-30T14:24:38.973Z,1.60
2023-04-30T14:27:06.039Z,2.95
2023-04-30T14:29:32.629Z,1.40
2023-04-30T14:31:59.061Z,1.63
2023-04-30T14:34:25.855Z,1.50
2023-04-30T14:36:52.338Z,1.25
2023-04-30T14:39:18.671Z,1.63
2023-04-30T14:41:45.128Z,1.50
2023-04-30T14:44:11.717Z,1.02
2023-04-30T14:46:38.300Z,1.20
2023-04-30T14:49:04.849Z,1.25
2023-04-30T14:51:32.417Z,1.10
2023-04-30T14:53:59.369Z,1.20
2023-04-30T14:56:25.834Z,1.17
2023-04-30T14:58:52.190Z,1.15
2023-04-30T15:01:18.884Z,1.65
2023-04-30T15:03:46.082Z,1.50
2023-04-30T15:06:13.919Z,1.45
2023-04-30T15:08:40.833Z,1.37
2023-04-30T15:11:09.681Z,1.33
2023-04-30T15:13:39.854Z,1.25
2023-04-30T15:16:07.009Z,1.60
2023-04-30T15:18:33.933Z,1.05
2023-04-30T15:21:00.812Z,1.30
2023-04-30T15:23:27.374Z,1.27
2023-04-30T15:25:53.797Z,1.27
2023-04-30T15:28:20.761Z,0.98
2023-04-30T15:30:47.081Z,1.27
2023-04-30T15:33:13.751Z,1.00
2023-04-30T15:35:40.640Z,1.00
2023-04-30T15:38:07.150Z,1.00
2023-04-30T15:40:33.924Z,1.00
2023-04-30T15:43:00.455Z,1.33
2023-04-30T15:45:27.970Z,1.10
2023-04-30T15:47:54.406Z,1.00
2023-04-30T15:50:22.289Z,1.50
2023-04-30T15:52:48.703Z,0.98
2023-04-30T15:55:15.074Z,1.00
2023-04-30T15:57:41.404Z,1.20
2023-04-30T16:00:08.970Z,1.15
2023-04-30T16:02:36.033Z,1.70
2023-04-30T16:05:02.515Z,1.08
2023-04-30T16:07:31.766Z,1.33
2023-04-30T16:09:59.997Z,1.50
2023-04-30T16:12:26.990Z,1.48
2023-04-30T16:14:53.912Z,1.27
2023-04-30T16:17:21.225Z,1.20
2023-04-30T16:19:47.552Z,1.02
2023-04-30T16:22:14.246Z,1.45
2023-04-30T16:24:41.249Z,1.10
2023-04-30T16:27:08.336Z,1.00
2023-04-30T16:29:34.713Z,1.00
2023-04-30T16:32:01.188Z,0.90
2023-04-30T16:34:27.848Z,1.02
2023-04-30T16:36:54.196Z,1.30
2023-04-30T16:39:20.540Z,0.88
2023-04-30T16:41:47.435Z,0.88
2023-04-30T16:44:13.773Z,0.80
2023-04-30T16:46:40.488Z,0.90
2023-04-30T16:49:07.000Z,1.45
2023-04-30T16:51:33.678Z,1.20
2023-04-30T16:54:00.001Z,1.00
2023-04-30T16:56:26.543Z,1.00
2023-04-30T16:58:52.929Z,1.30
2023-04-30T17:01:19.619Z,1.10
2023-04-30T17:03:46.675Z,1.02
2023-04-30T17:06:14.229Z,1.30
2023-04-30T17:08:41.111Z,0.88
2023-04-30T17:11:07.828Z,0.93
2023-04-30T17:13:34.257Z,1.02
2023-04-30T17:16:02.011Z,1.10
2023-04-30T17:18:28.486Z,0.93
2023-04-30T17:20:55.095Z,1.88
2023-04-30T17:23:21.657Z,1.10
2023-04-30T17:25:48.006Z,0.90
2023-04-30T17:28:14.302Z,0.75
2023-04-30T17:30:41.915Z,1.00
2023-04-30T17:33:08.625Z,1.20
2023-04-30T17:35:35.116Z,1.10
2023-04-30T17:38:03.867Z,1.10
2023-04-30T17:40:31.615Z,1.10
2023-04-30T17:42:58.195Z,1.33
2023-04-30T17:45:26.676Z,0.75
2023-04-30T17:47:53.236Z,1.25
2023-04-30T17:50:19.626Z,1.20
2023-04-30T17:52:46.874Z,1.10
2023-04-30T17:55:13.921Z,1.15
2023-04-30T17:57:40.520Z,1.17
2023-04-30T18:00:08.143Z,1.30
2023-04-30T18:02:34.626Z,1.50
2023-04-30T18:05:01.102Z,1.65
2023-04-30T18:07:27.742Z,1.42
2023-04-30T18:09:54.824Z,1.65
2023-04-30T18:12:21.560Z,2.15
2023-04-30T18:14:48.265Z,1.40
2023-04-30T18:17:15.442Z,1.60
2023-04-30T18:19:46.326Z,1.50
2023-04-30T18:22:12.807Z,1.58
2023-04-30T18:24:39.560Z,2.00
2023-04-30T18:27:06.906Z,1.92
2023-04-30T18:29:33.428Z,2.10
2023-04-30T18:31:59.923Z,1.60
2023-04-30T18:34:28.206Z,1.83
2023-04-30T18:36:55.167Z,1.50
2023-04-30T18:39:22.494Z,1.70
2023-04-30T18:41:49.428Z,1.88
2023-04-30T18:44:16.638Z,1.60
2023-04-30T18:46:43.082Z,1.77
2023-04-30T18:49:09.644Z,2.00
2023-04-30T18:51:36.033Z,1.80
2023-04-30T18:54:02.725Z,1.85
2023-04-30T18:56:29.226Z,1.77
2023-04-30T18:58:55.883Z,2.05
2023-04-30T19:01:24.600Z,1.70
2023-04-30T19:03:51.245Z,1.77
2023-04-30T19:06:18.091Z,1.90
2023-04-30T19:08:46.502Z,2.35
2023-04-30T19:11:14.019Z,2.53
2023-04-30T19:13:41.926Z,2.40
2023-04-30T19:16:08.536Z,1.90
2023-04-30T19:18:35.124Z,1.80
2023-04-30T19:21:02.438Z,2.78
2023-04-30T19:23:32.385Z,2.75
2023-04-30T19:26:00.200Z,2.40
2023-04-30T19:28:26.755Z,2.40
2023-04-30T19:30:54.522Z,2.70
2023-04-30T19:33:22.310Z,2.47
2023-04-30T19:35:50.324Z,2.30
2023-04-30T19:38:17.264Z,2.78
2023-04-30T19:40:52.026Z,2.30
2023-04-30T19:43:19.470Z,2.30
2023-04-30T19:45:54.192Z,2.15
2023-04-30T19:48:21.958Z,3.20
2023-04-30T19:50:49.581Z,2.35
2023-04-30T19:53:17.148Z,2.53
2023-04-30T19:55:43.911Z,2.93
2023-04-30T19:58:10.616Z,2.83
2023-04-30T20:00:38.483Z,3.45
2023-04-30T20:03:05.356Z,3.28
2023-04-30T20:05:32.245Z,3.28
2023-04-30T20:07:59.586Z,3.30
2023-04-30T20:10:26.020Z,2.92
2023-04-30T20:12:53.420Z,3.45
2023-04-30T20:15:21.569Z,3.47
2023-04-30T20:17:51.827Z,3.80
2023-04-30T20:20:19.989Z,3.47
2023-04-30T20:22:50.206Z,3.47
2023-04-30T20:25:16.821Z,3.70
2023-04-30T20:27:43.846Z,3.65
2023-04-30T20:30:12.233Z,3.80
2023-04-30T20:32:39.900Z,4.38
2023-04-30T20:35:07.628Z,4.27
2023-04-30T20:37:34.774Z,3.93
2023-04-30T20:40:01.683Z,3.55
2023-04-30T20:42:28.035Z,3.63
2023-04-30T20:44:55.205Z,3.22
2023-04-30T20:47:22.569Z,3.42
2023-04-30T20:49:48.972Z,3.53
2023-04-30T20:52:15.389Z,4.20
2023-04-30T20:54:41.936Z,4.20
2023-04-30T20:57:08.883Z,4.25
2023-04-30T20:59:36.029Z,4.15
2023-04-30T21:02:04.400Z,4.00
2023-04-30T21:04:31.199Z,3.72
2023-04-30T21:06:57.653Z,3.08
2023-04-30T21:09:23.976Z,3.67
2023-04-30T21:11:50.367Z,4.80
2023-04-30T21:14:17.739Z,4.07
2023-04-30T21:16:44.896Z,4.15
2023-04-30T21:19:11.425Z,3.88
2023-04-30T21:21:37.782Z,5.00
2023-04-30T21:24:05.119Z,4.28
2023-04-30T21:26:31.755Z,4.57
2023-04-30T21:28:58.107Z,3.58
2023-04-30T21:31:25.506Z,3.20
2023-04-30T21:33:52.117Z,3.95
2023-04-30T21:36:18.874Z,3.80
2023-04-30T21:38:45.264Z,3.90
2023-04-30T21:41:16.135Z,3.28
2023-04-30T21:43:43.560Z,3.25
2023-04-30T21:46:11.165Z,3.95
2023-04-30T21:48:38.359Z,3.63
2023-04-30T21:51:12.614Z,3.67
2023-04-30T21:53:39.434Z,3.85
2023-04-30T21:56:08.315Z,4.00
2023-04-30T21:58:35.616Z,3.42
2023-04-30T22:01:04.241Z,4.05
2023-04-30T22:03:34.884Z,3.45
2023-04-30T22:06:01.545Z,3.75
2023-04-30T22:08:28.221Z,4.07
2023-04-30T22:11:00.121Z,3.60
2023-04-30T22:13:29.552Z,3.80
2023-04-30T22:15:56.762Z,3.78
2023-04-30T22:18:24.294Z,3.42
2023-04-30T22:20:53.140Z,3.60
2023-04-30T22:23:21.169Z,3.97
2023-04-30T22:25:48.249Z,3.42
2023-04-30T22:28:19.287Z,3.47
2023-04-30T22:30:46.347Z,3.10
2023-04-30T22:33:12.789Z,3.22
2023-04-30T22:35:39.272Z,3.67
2023-04-30T22:38:07.162Z,3.42
2023-04-30T22:40:35.192Z,3.55
2023-04-30T22:43:02.228Z,3.65
2023-04-30T22:45:30.205Z,3.72
2023-04-30T22:47:59.480Z,3.55
2023-04-30T22:50:27.267Z,3.85
2023-04-30T22:52:54.478Z,3.50
2023-04-30T22:55:20.944Z,3.40
2023-04-30T22:57:47.517Z,3.58
2023-04-30T23:00:14.412Z,3.33
2023-04-30T23:02:40.816Z,3.60
2023-04-30T23:05:08.007Z,3.33
2023-04-30T23:07:34.363Z,3.95
2023-04-30T23:10:01.016Z,3.25
2023-04-30T23:12:27.770Z,3.20
2023-04-30T23:14:54.271Z,3.60
2023-04-30T23:17:20.904Z,3.92
2023-04-30T23:19:47.531Z,3.30
2023-04-30T23:22:13.886Z,3.80
2023-04-30T23:24:41.329Z,3.45
2023-04-30T23:27:08.306Z,3.63
2023-04-30T23:29:36.519Z,3.47
2023-04-30T23:32:04.283Z,3.38
2023-04-30T23:34:30.853Z,3.77
2023-04-30T23:36:57.719Z,4.05
2023-04-30T23:39:24.722Z,3.60
2023-04-30T23:41:53.624Z,3.83
2023-04-30T23:44:20.845Z,3.70
2023-04-30T23:46:48.053Z,3.38
2023-04-30T23:49:16.429Z,3.67
2023-04-30T23:51:42.869Z,3.92
2023-04-30T23:54:09.297Z,3.38
2023-04-30T23:56:37.417Z,3.83
2023-04-30T23:59:04.007Z,3.45
